Time;durP1;ratioP1;P1;durP2;ratioP2;P2;SDS_P1;SDS_P2;PMS_P1;PMS_P2;Temp;Humidity;BMP_temperature;BMP_pressure;BME280_temperature;BME280_humidity;BME280_pressure;Samples;Min_cycle;Max_cycle;Signal;HPM_P1;HPM_P2
2022/09/17 00:01:15;;;;;;;5.50;1.70;;;14.20;99.90;;;;;;4980962;28;20486;-66
2022/09/17 00:03:41;;;;;;;3.87;1.67;;;14.10;99.90;;;;;;4997719;28;20468;-66
2022/09/17 00:06:09;;;;;;;4.23;1.60;;;14.00;99.90;;;;;;4999585;28;20503;-66
2022/09/17 00:08:37;;;;;;;3.10;1.50;;;14.00;99.90;;;;;;4997293;28;20194;-66
2022/09/17 00:11:12;;;;;;;2.40;1.80;;;14.10;99.90;;;;;;4999384;28;20429;-66
2022/09/17 00:13:38;;;;;;;3.73;1.50;;;14.00;99.90;;;;;;4998554;28;20910;-66
2022/09/17 00:16:04;;;;;;;3.70;1.83;;;14.00;99.90;;;;;;4994764;28;20993;-66
2022/09/17 00:18:30;;;;;;;3.43;1.73;;;14.00;99.90;;;;;;4996238;28;20517;-66
2022/09/17 00:20:56;;;;;;;3.57;1.80;;;14.00;99.90;;;;;;4993499;28;20440;-66
2022/09/17 00:23:21;;;;;;;3.33;1.70;;;13.90;99.90;;;;;;4997794;28;20479;-66
2022/09/17 00:25:47;;;;;;;2.67;1.60;;;13.90;99.90;;;;;;4980389;28;20239;-66
2022/09/17 00:28:13;;;;;;;2.33;1.60;;;13.80;99.90;;;;;;4999673;28;20188;-66
2022/09/17 00:30:42;;;;;;;1.77;1.47;;;13.80;99.90;;;;;;4997327;28;20173;-66
2022/09/17 00:33:11;;;;;;;2.87;1.67;;;13.80;99.90;;;;;;4995569;28;20448;-66
2022/09/17 00:35:37;;;;;;;2.53;1.40;;;13.80;99.90;;;;;;4997207;28;20562;-66
2022/09/17 00:38:03;;;;;;;3.40;1.60;;;13.80;99.90;;;;;;4998115;28;20518;-66
2022/09/17 00:40:29;;;;;;;3.50;1.50;;;13.90;99.90;;;;;;4996636;28;20255;-66
2022/09/17 00:42:54;;;;;;;2.33;1.50;;;13.90;99.90;;;;;;4993471;28;20494;-66
2022/09/17 00:45:20;;;;;;;3.70;1.90;;;13.90;99.90;;;;;;4994716;28;20720;-67
2022/09/17 00:48:00;;;;;;;6.17;1.50;;;13.90;99.90;;;;;;4979319;28;20272;-67
2022/09/17 00:50:40;;;;;;;2.00;1.40;;;13.90;99.90;;;;;;4993912;28;20525;-66
2022/09/17 00:53:16;;;;;;;3.83;1.63;;;13.80;99.90;;;;;;5000011;28;20451;-67
2022/09/17 00:55:47;;;;;;;3.10;1.40;;;13.90;99.90;;;;;;5001065;28;20439;-67
2022/09/17 00:58:15;;;;;;;4.67;1.50;;;13.80;99.90;;;;;;4982251;28;21012;-67
2022/09/17 01:00:41;;;;;;;2.20;1.67;;;13.70;99.90;;;;;;5000938;28;20802;-67
2022/09/17 01:03:07;;;;;;;2.63;1.50;;;13.80;99.90;;;;;;5001246;28;20505;-67
2022/09/17 01:05:38;;;;;;;2.27;1.50;;;13.80;99.90;;;;;;4999875;28;20444;-67
2022/09/17 01:08:36;;;;;;;2.83;1.50;;;13.80;99.90;;;;;;4999376;28;20231;-67
2022/09/17 01:11:36;;;;;;;2.80;1.57;;;13.80;99.90;;;;;;4998299;28;20948;-67
2022/09/17 01:14:20;;;;;;;3.73;2.07;;;13.60;99.90;;;;;;5001482;28;20431;-67
2022/09/17 01:16:52;;;;;;;2.67;1.50;;;13.50;99.90;;;;;;5000720;28;20436;-67
2022/09/17 01:19:36;;;;;;;5.30;1.70;;;13.50;99.90;;;;;;4997624;28;20528;-67
2022/09/17 01:22:06;;;;;;;4.70;1.50;;;13.40;99.90;;;;;;4999123;28;20545;-67
2022/09/17 01:24:48;;;;;;;3.00;1.77;;;13.40;99.90;;;;;;4996708;28;20452;-67
2022/09/17 01:27:28;;;;;;;2.37;1.53;;;13.60;99.90;;;;;;4998681;28;20448;-67
2022/09/17 01:30:15;;;;;;;3.70;1.60;;;13.60;99.90;;;;;;4998053;28;20877;-67
2022/09/17 01:32:56;;;;;;;4.30;2.00;;;13.70;99.90;;;;;;5000698;28;20540;-67
2022/09/17 01:35:49;;;;;;;3.70;1.70;;;13.70;99.90;;;;;;5002585;28;20534;-67
2022/09/17 01:38:30;;;;;;;1.87;1.60;;;13.70;99.90;;;;;;5001506;28;20424;-67
2022/09/17 01:41:18;;;;;;;4.10;1.60;;;13.50;99.90;;;;;;4982104;28;20527;-67
2022/09/17 01:44:19;;;;;;;3.20;1.70;;;13.50;99.90;;;;;;4999118;28;20870;-66
2022/09/17 01:46:50;;;;;;;2.10;1.40;;;13.50;99.90;;;;;;5002618;28;20505;-66
2022/09/17 01:49:17;;;;;;;2.73;1.70;;;13.60;99.90;;;;;;4981782;28;20439;-66
2022/09/17 01:51:47;;;;;;;2.00;1.63;;;13.60;99.90;;;;;;5000256;28;20501;-66
2022/09/17 01:54:18;;;;;;;4.90;1.37;;;13.50;99.90;;;;;;5001381;28;20459;-66
2022/09/17 01:56:55;;;;;;;2.77;1.60;;;13.50;99.90;;;;;;4999996;28;20431;-66
2022/09/17 01:59:30;;;;;;;6.13;1.63;;;13.50;99.90;;;;;;4983131;28;20538;-66
2022/09/17 02:02:05;;;;;;;3.73;1.50;;;13.50;99.90;;;;;;4997743;28;20887;-67
2022/09/17 02:05:10;;;;;;;2.10;1.57;;;13.50;99.90;;;;;;4998108;28;20493;-66
2022/09/17 02:07:43;;;;;;;2.60;1.70;;;13.50;99.90;;;;;;5000213;28;20416;-66
2022/09/17 02:10:35;;;;;;;4.10;1.70;;;13.60;99.90;;;;;;4998310;28;20424;-67
2022/09/17 02:13:09;;;;;;;4.10;1.70;;;13.60;99.90;;;;;;5000669;28;20463;-66
2022/09/17 02:15:39;;;;;;;6.20;1.53;;;13.60;99.90;;;;;;4995349;28;20538;-66
2022/09/17 02:18:23;;;;;;;3.83;1.73;;;13.60;99.90;;;;;;4998757;28;20443;-66
2022/09/17 02:21:02;;;;;;;5.50;3.17;;;13.60;99.90;;;;;;4998797;28;20470;-67
2022/09/17 02:23:33;;;;;;;3.20;1.60;;;13.70;99.90;;;;;;4983355;28;20838;-66
2022/09/17 02:26:07;;;;;;;1.87;1.50;;;13.60;99.90;;;;;;4994848;28;20478;-67
2022/09/17 02:28:54;;;;;;;3.60;1.70;;;13.60;99.90;;;;;;5000377;28;20868;-66
2022/09/17 02:31:19;;;;;;;2.80;1.43;;;13.60;99.90;;;;;;4996214;28;20796;-66
2022/09/17 02:33:51;;;;;;;4.47;2.13;;;13.50;99.90;;;;;;4998212;28;20962;-66
2022/09/17 02:36:18;;;;;;;3.37;1.50;;;13.50;99.90;;;;;;4998775;28;20276;-66
2022/09/17 02:38:45;;;;;;;3.00;1.50;;;13.50;99.90;;;;;;5000189;28;20420;-66
2022/09/17 02:41:15;;;;;;;2.17;1.70;;;13.50;99.90;;;;;;4980981;28;20507;-67
2022/09/17 02:43:46;;;;;;;5.03;1.90;;;13.40;99.90;;;;;;4999224;28;20420;-66
2022/09/17 02:46:28;;;;;;;2.60;1.50;;;13.50;99.90;;;;;;4997015;28;20538;-66
2022/09/17 02:49:18;;;;;;;3.30;2.00;;;13.50;99.90;;;;;;5001997;28;20416;-67
2022/09/17 02:51:50;;;;;;;3.40;1.70;;;13.30;99.90;;;;;;4998268;28;20433;-66
2022/09/17 02:54:33;;;;;;;3.43;1.70;;;13.20;99.90;;;;;;4993648;28;20467;-67
2022/09/17 02:57:16;;;;;;;4.03;1.60;;;13.30;99.90;;;;;;4993311;28;20456;-66
2022/09/17 03:00:08;;;;;;;2.97;1.90;;;13.20;99.90;;;;;;5000862;28;20454;-66
2022/09/17 03:02:46;;;;;;;3.13;1.77;;;13.20;99.90;;;;;;4991234;28;20482;-66
2022/09/17 03:05:13;;;;;;;3.70;1.87;;;13.10;99.90;;;;;;4996073;28;20540;-66
2022/09/17 03:07:39;;;;;;;2.23;1.60;;;13.00;99.90;;;;;;4996595;28;20812;-66
2022/09/17 03:10:06;;;;;;;3.40;2.07;;;12.90;99.90;;;;;;4997804;28;21001;-66
2022/09/17 03:12:31;;;;;;;4.60;1.90;;;12.90;99.90;;;;;;4998233;28;20752;-66
2022/09/17 03:14:57;;;;;;;3.43;1.70;;;12.90;99.90;;;;;;4996564;28;20539;-67
2022/09/17 03:17:22;;;;;;;4.70;1.83;;;12.90;99.90;;;;;;4995834;28;21043;-67
2022/09/17 03:19:48;;;;;;;5.13;1.90;;;12.90;99.90;;;;;;4999668;28;20177;-67
2022/09/17 03:22:14;;;;;;;3.03;1.80;;;13.00;99.90;;;;;;4999680;28;20299;-67
2022/09/17 03:24:39;;;;;;;6.33;2.07;;;12.80;99.90;;;;;;4997780;28;20229;-67
2022/09/17 03:27:05;;;;;;;3.67;2.20;;;12.70;99.90;;;;;;4998211;28;20503;-67
2022/09/17 03:29:30;;;;;;;4.80;1.90;;;12.60;99.90;;;;;;4995751;28;20178;-67
2022/09/17 03:31:56;;;;;;;3.47;1.90;;;12.60;99.90;;;;;;4981174;28;20315;-67
2022/09/17 03:34:22;;;;;;;2.97;1.90;;;12.70;99.90;;;;;;4999283;28;20800;-67
2022/09/17 03:36:48;;;;;;;2.80;2.00;;;12.70;99.90;;;;;;4997813;28;20177;-67
2022/09/17 03:39:13;;;;;;;2.00;1.70;;;12.70;99.90;;;;;;4995388;28;20436;-67
2022/09/17 03:41:39;;;;;;;2.97;2.10;;;12.70;99.90;;;;;;4995439;28;20549;-67
2022/09/17 03:44:05;;;;;;;4.57;2.30;;;12.80;99.90;;;;;;4999570;28;20181;-67
2022/09/17 03:46:31;;;;;;;3.43;2.07;;;12.80;99.90;;;;;;4996723;28;20188;-67
2022/09/17 03:48:56;;;;;;;3.67;2.30;;;12.80;99.90;;;;;;4983426;28;20762;-68
2022/09/17 03:51:22;;;;;;;4.83;1.93;;;12.80;99.90;;;;;;4997011;28;20188;-67
2022/09/17 03:53:48;;;;;;;4.17;2.10;;;12.80;99.90;;;;;;4998889;28;20655;-68
2022/09/17 03:56:13;;;;;;;4.27;1.90;;;12.80;99.90;;;;;;4996163;28;20190;-66
2022/09/17 03:58:39;;;;;;;3.97;1.87;;;12.90;99.90;;;;;;4996399;28;20401;-66
2022/09/17 04:01:04;;;;;;;4.17;1.90;;;12.80;99.90;;;;;;4997204;28;20559;-65
2022/09/17 04:03:31;;;;;;;3.87;2.20;;;12.80;99.90;;;;;;4998025;28;20209;-66
2022/09/17 04:05:56;;;;;;;5.37;2.00;;;12.80;99.90;;;;;;4995864;28;20252;-66
2022/09/17 04:08:22;;;;;;;3.50;2.13;;;12.80;99.90;;;;;;4997264;28;20710;-66
2022/09/17 04:10:47;;;;;;;4.27;2.50;;;12.70;99.90;;;;;;4993930;28;20193;-68
2022/09/17 04:13:15;;;;;;;3.90;1.97;;;12.60;99.90;;;;;;4996673;28;20181;-66
2022/09/17 04:15:41;;;;;;;2.93;1.97;;;12.60;99.90;;;;;;4998636;28;20209;-66
2022/09/17 04:18:07;;;;;;;6.93;2.57;;;12.60;99.90;;;;;;4997156;28;20734;-66
2022/09/17 04:20:33;;;;;;;2.50;2.00;;;12.70;99.90;;;;;;4997285;28;20972;-66
2022/09/17 04:22:58;;;;;;;3.37;2.30;;;12.60;99.90;;;;;;4996789;28;20209;-66
2022/09/17 04:25:24;;;;;;;4.37;2.10;;;12.60;99.90;;;;;;4995088;28;20239;-66
2022/09/17 04:27:50;;;;;;;5.77;2.37;;;12.50;99.90;;;;;;4977313;28;20547;-66
2022/09/17 04:30:16;;;;;;;3.47;2.57;;;12.50;99.90;;;;;;4997770;28;20173;-66
2022/09/17 04:32:43;;;;;;;3.20;2.00;;;12.30;99.90;;;;;;4997572;28;20196;-66
2022/09/17 04:35:09;;;;;;;7.90;2.40;;;12.40;99.90;;;;;;4993873;28;20723;-66
2022/09/17 04:37:34;;;;;;;5.00;2.00;;;12.50;99.90;;;;;;4995539;28;20419;-66
2022/09/17 04:40:00;;;;;;;4.30;2.40;;;12.50;99.90;;;;;;4996221;28;20506;-66
2022/09/17 04:42:26;;;;;;;10.13;2.27;;;12.40;99.90;;;;;;4998349;28;20328;-66
2022/09/17 04:44:51;;;;;;;5.87;2.33;;;12.40;99.90;;;;;;4981921;28;20522;-66
2022/09/17 04:47:17;;;;;;;3.50;2.10;;;12.50;99.90;;;;;;4994849;28;20391;-66
2022/09/17 04:49:42;;;;;;;9.63;2.87;;;12.40;99.90;;;;;;4998420;28;20730;-66
2022/09/17 04:52:08;;;;;;;4.10;2.50;;;12.30;99.90;;;;;;4998103;28;20200;-66
2022/09/17 04:54:33;;;;;;;8.70;2.50;;;12.40;99.90;;;;;;4997952;28;20221;-67
2022/09/17 04:56:59;;;;;;;4.17;2.40;;;12.50;99.90;;;;;;4996838;28;20193;-66
2022/09/17 04:59:25;;;;;;;5.20;2.40;;;12.50;99.90;;;;;;4997630;28;20380;-66
2022/09/17 05:01:50;;;;;;;3.13;2.20;;;12.50;99.90;;;;;;4995814;28;20224;-66
2022/09/17 05:04:16;;;;;;;5.00;2.53;;;12.50;99.90;;;;;;4994239;28;20228;-67
2022/09/17 05:06:41;;;;;;;7.10;2.33;;;12.50;99.90;;;;;;4996630;28;20189;-66
2022/09/17 05:09:07;;;;;;;5.63;2.53;;;12.50;99.90;;;;;;4995573;28;20234;-67
2022/09/17 05:11:33;;;;;;;4.80;2.60;;;12.50;99.90;;;;;;4995258;28;20205;-66
2022/09/17 05:13:59;;;;;;;4.63;2.47;;;12.50;99.90;;;;;;4998939;28;20196;-66
2022/09/17 05:16:25;;;;;;;6.33;2.80;;;12.40;99.90;;;;;;5001245;28;20416;-66
2022/09/17 05:18:51;;;;;;;4.17;2.67;;;12.50;99.90;;;;;;4995389;28;20416;-66
2022/09/17 05:21:21;;;;;;;4.57;2.90;;;12.50;99.90;;;;;;4995692;28;20235;-66
2022/09/17 05:23:47;;;;;;;3.90;2.93;;;12.50;99.90;;;;;;4995886;28;20193;-66
2022/09/17 05:26:13;;;;;;;5.10;2.90;;;12.50;99.90;;;;;;4997364;28;21003;-66
2022/09/17 05:28:38;;;;;;;4.67;2.30;;;12.50;99.90;;;;;;4995620;28;20228;-66
2022/09/17 05:31:04;;;;;;;3.77;2.53;;;12.50;99.90;;;;;;4994297;28;20564;-66
2022/09/17 05:33:30;;;;;;;4.10;2.50;;;12.50;99.90;;;;;;4997721;28;20436;-66
2022/09/17 05:35:56;;;;;;;4.27;2.63;;;12.50;99.90;;;;;;4996692;28;20443;-67
2022/09/17 05:38:22;;;;;;;3.70;2.70;;;12.40;99.90;;;;;;4993366;28;20185;-67
2022/09/17 05:40:50;;;;;;;6.00;2.70;;;12.40;99.90;;;;;;5003168;28;20649;-66
2022/09/17 05:43:16;;;;;;;8.27;2.97;;;12.40;99.90;;;;;;5001506;28;20283;-67
2022/09/17 05:45:41;;;;;;;3.70;2.43;;;12.40;99.90;;;;;;5001895;28;20470;-67
2022/09/17 05:48:11;;;;;;;6.07;2.93;;;12.40;99.90;;;;;;4998599;28;20408;-67
2022/09/17 05:50:36;;;;;;;3.70;2.63;;;12.40;99.90;;;;;;5000002;28;20196;-67
2022/09/17 05:53:04;;;;;;;6.00;2.83;;;12.30;99.90;;;;;;4999610;28;20428;-67
2022/09/17 05:55:30;;;;;;;3.33;2.60;;;12.30;99.90;;;;;;4997804;28;20197;-67
2022/09/17 05:57:56;;;;;;;4.40;2.70;;;12.30;99.90;;;;;;4997915;28;20559;-67
2022/09/17 06:00:21;;;;;;;5.90;3.07;;;12.30;99.90;;;;;;4999598;28;20425;-67
2022/09/17 06:02:54;;;;;;;12.27;4.20;;;12.20;99.90;;;;;;4999000;28;20619;-65
2022/09/17 06:05:19;;;;;;;6.87;3.40;;;12.10;99.90;;;;;;4995504;28;20701;-67
2022/09/17 06:07:45;;;;;;;4.30;3.00;;;12.10;99.90;;;;;;4999975;28;20456;-70
2022/09/17 06:10:11;;;;;;;4.60;3.37;;;12.10;99.90;;;;;;4997882;28;20185;-67
2022/09/17 06:12:36;;;;;;;4.67;2.90;;;12.00;99.90;;;;;;5000736;28;20317;-66
2022/09/17 06:15:03;;;;;;;4.20;3.07;;;12.00;99.90;;;;;;4983053;28;20221;-66
2022/09/17 06:17:32;;;;;;;4.60;3.07;;;12.00;99.90;;;;;;4979123;28;20682;-66
2022/09/17 06:19:58;;;;;;;5.17;3.70;;;12.00;99.90;;;;;;4995513;28;20417;-66
2022/09/17 06:22:24;;;;;;;5.03;3.40;;;12.00;99.90;;;;;;4978987;28;20483;-65
2022/09/17 06:24:49;;;;;;;4.17;3.57;;;11.90;99.90;;;;;;4998541;28;20355;-66
2022/09/17 06:27:15;;;;;;;7.63;3.70;;;11.90;99.90;;;;;;4997248;28;20212;-66
2022/09/17 06:29:40;;;;;;;7.90;3.70;;;11.90;99.90;;;;;;4999760;28;20484;-66
2022/09/17 06:32:09;;;;;;;6.00;3.90;;;11.90;99.90;;;;;;4998255;28;20647;-67
2022/09/17 06:34:35;;;;;;;12.50;4.50;;;12.00;99.90;;;;;;5002905;28;20205;-67
2022/09/17 06:37:00;;;;;;;7.60;4.17;;;12.00;99.90;;;;;;4999320;28;20436;-66
2022/09/17 06:39:26;;;;;;;4.70;4.10;;;12.00;99.90;;;;;;4999141;28;20231;-66
2022/09/17 06:41:51;;;;;;;5.60;4.50;;;12.00;99.90;;;;;;4997693;28;20247;-66
2022/09/17 06:44:17;;;;;;;6.00;4.73;;;12.10;99.90;;;;;;5000189;28;20259;-66
2022/09/17 06:46:43;;;;;;;9.90;4.70;;;12.10;99.90;;;;;;4999565;28;20612;-66
2022/09/17 06:49:08;;;;;;;12.53;4.77;;;12.00;99.90;;;;;;4998806;28;20185;-66
2022/09/17 06:51:34;;;;;;;9.20;4.70;;;12.20;99.90;;;;;;4998502;28;20188;-66
2022/09/17 06:54:00;;;;;;;8.20;5.03;;;12.20;99.90;;;;;;5000942;28;20235;-66
2022/09/17 06:56:26;;;;;;;6.67;4.67;;;12.20;99.90;;;;;;5002085;28;20272;-66
2022/09/17 06:58:53;;;;;;;8.03;4.67;;;12.20;99.90;;;;;;4983526;28;20865;-65
2022/09/17 07:01:18;;;;;;;8.00;4.77;;;12.30;99.90;;;;;;4978032;28;20177;-66
2022/09/17 07:03:44;;;;;;;5.43;4.10;;;12.30;99.90;;;;;;5000326;28;20565;-69
2022/09/17 07:06:11;;;;;;;5.00;4.50;;;12.40;99.90;;;;;;4996093;28;20216;-66
2022/09/17 07:08:37;;;;;;;7.10;5.50;;;12.50;99.90;;;;;;4997478;28;20228;-66
2022/09/17 07:11:03;;;;;;;6.77;4.13;;;12.50;99.90;;;;;;5000996;28;20479;-66
2022/09/17 07:13:29;;;;;;;6.20;4.50;;;12.50;99.90;;;;;;4997837;28;20876;-66
2022/09/17 07:15:56;;;;;;;6.53;4.43;;;12.60;99.90;;;;;;4996045;28;20292;-66
2022/09/17 07:18:22;;;;;;;9.53;4.33;;;12.60;99.90;;;;;;4996065;28;20671;-66
2022/09/17 07:21:03;;;;;;;6.10;4.67;;;12.60;99.90;;;;;;4997665;28;20885;-66
2022/09/17 07:23:31;;;;;;;7.80;4.83;;;12.60;99.90;;;;;;4999229;28;20478;-66
2022/09/17 07:25:58;;;;;;;4.80;4.40;;;12.50;99.90;;;;;;4995402;28;20915;-66
2022/09/17 07:28:25;;;;;;;12.30;5.40;;;12.60;99.90;;;;;;4994393;28;20476;-66
2022/09/17 07:30:52;;;;;;;5.33;4.83;;;12.50;99.90;;;;;;4997943;28;20888;-67
2022/09/17 07:33:23;;;;;;;9.97;4.80;;;12.60;99.90;;;;;;4998213;23;20678;-70
2022/09/17 07:35:56;;;;;;;6.60;4.90;;;12.60;99.90;;;;;;4996572;28;20420;-69
2022/09/17 07:38:23;;;;;;;7.27;4.90;;;12.60;99.90;;;;;;4999213;28;20424;-69
2022/09/17 07:40:57;;;;;;;9.83;5.30;;;12.70;99.90;;;;;;4998485;28;20420;-69
2022/09/17 07:43:23;;;;;;;7.73;5.20;;;12.70;99.90;;;;;;4998617;28;20472;-69
2022/09/17 07:45:49;;;;;;;7.00;4.13;;;12.90;99.90;;;;;;5000132;28;20420;-68
2022/09/17 07:48:14;;;;;;;5.07;4.50;;;12.90;99.90;;;;;;4999413;28;20454;-69
2022/09/17 07:51:27;;;;;;;5.70;5.10;;;13.00;99.90;;;;;;4999246;28;20479;-67
2022/09/17 07:53:54;;;;;;;4.83;4.33;;;13.10;99.90;;;;;;4995496;28;20771;-70
2022/09/17 07:56:20;;;;;;;6.67;4.60;;;13.20;99.90;;;;;;4998424;28;20424;-68
2022/09/17 07:58:45;;;;;;;8.10;4.60;;;13.20;99.90;;;;;;4999879;28;20613;-69
2022/09/17 08:01:12;;;;;;;9.20;3.73;;;13.30;99.90;;;;;;4997819;28;20182;-69
2022/09/17 08:03:38;;;;;;;8.23;4.30;;;13.30;99.90;;;;;;4998917;28;20213;-68
2022/09/17 08:06:12;;;;;;;6.27;4.23;;;13.40;99.90;;;;;;4997661;28;20424;-67
2022/09/17 08:08:39;;;;;;;6.23;4.33;;;13.50;99.90;;;;;;4999472;28;20432;-68
2022/09/17 08:11:15;;;;;;;9.50;5.63;;;13.40;99.90;;;;;;5000248;28;21199;-70
2022/09/17 08:13:41;;;;;;;7.03;4.30;;;13.30;99.90;;;;;;5000133;28;20534;-67
2022/09/17 08:16:14;;;;;;;5.60;4.67;;;13.40;99.90;;;;;;4997418;28;20435;-68
2022/09/17 08:18:40;;;;;;;5.50;4.80;;;13.40;99.90;;;;;;5003237;28;20489;-68
2022/09/17 08:21:08;;;;;;;5.10;4.33;;;13.50;99.90;;;;;;4999318;28;20526;-69
2022/09/17 08:23:36;;;;;;;8.90;4.47;;;13.50;99.90;;;;;;5000267;28;20813;-69
2022/09/17 08:26:03;;;;;;;5.53;3.90;;;13.60;99.90;;;;;;4999082;28;20447;-69
2022/09/17 08:28:30;;;;;;;7.50;4.20;;;13.70;99.90;;;;;;5000058;28;20420;-68
2022/09/17 08:31:07;;;;;;;6.60;4.37;;;13.70;99.90;;;;;;4998103;28;20424;-69
2022/09/17 08:33:38;;;;;;;12.47;4.50;;;13.80;99.90;;;;;;4998989;28;20860;-69
2022/09/17 08:36:04;;;;;;;5.40;2.90;;;13.80;99.90;;;;;;4999504;28;20644;-69
2022/09/17 08:38:32;;;;;;;6.30;3.20;;;13.70;99.90;;;;;;4997539;28;20421;-69
2022/09/17 08:41:10;;;;;;;7.73;3.53;;;13.80;99.90;;;;;;4999116;28;20844;-70
2022/09/17 08:44:00;;;;;;;7.77;2.83;;;13.80;99.90;;;;;;4996983;28;20444;-70
2022/09/17 08:46:26;;;;;;;4.50;2.73;;;13.80;99.90;;;;;;4996954;28;20447;-69
2022/09/17 08:49:03;;;;;;;10.57;3.20;;;13.70;99.90;;;;;;4998762;28;20412;-69
2022/09/17 08:51:53;;;;;;;10.33;3.27;;;13.70;99.90;;;;;;4999416;28;20415;-70
2022/09/17 08:54:41;;;;;;;12.57;3.53;;;13.70;99.90;;;;;;4998237;28;20806;-69
2022/09/17 08:57:40;;;;;;;7.90;3.03;;;13.80;99.90;;;;;;4996075;28;20408;-70
2022/09/17 09:00:18;;;;;;;6.30;2.67;;;13.80;99.90;;;;;;4997591;28;20428;-69
2022/09/17 09:03:12;;;;;;;6.10;2.90;;;13.90;99.90;;;;;;5000115;28;20895;-69
2022/09/17 09:05:51;;;;;;;3.77;2.90;;;13.80;99.90;;;;;;4996735;28;20889;-69
2022/09/17 09:08:42;;;;;;;3.70;2.70;;;13.80;99.90;;;;;;4998681;28;20441;-68
2022/09/17 09:11:15;;;;;;;7.30;2.87;;;13.70;99.90;;;;;;4998269;28;20431;-70
2022/09/17 09:13:47;;;;;;;4.43;2.50;;;13.70;99.90;;;;;;5001565;28;21094;-70
2022/09/17 09:16:16;;;;;;;5.60;2.50;;;13.70;99.90;;;;;;4984049;28;20445;-69
2022/09/17 09:18:42;;;;;;;8.40;2.73;;;13.60;99.90;;;;;;5001270;28;20428;-70
2022/09/17 09:21:17;;;;;;;7.63;2.87;;;13.70;99.90;;;;;;5002342;28;20704;-70
2022/09/17 09:23:51;;;;;;;6.80;3.10;;;13.70;99.90;;;;;;5001791;28;20509;-69
2022/09/17 09:26:22;;;;;;;5.57;2.70;;;13.80;99.90;;;;;;5002211;28;20497;-69
2022/09/17 09:29:20;;;;;;;5.50;2.50;;;13.90;99.90;;;;;;5003898;28;20420;-69
2022/09/17 09:32:15;;;;;;;4.60;2.83;;;14.00;99.90;;;;;;4965479;28;20443;-70
2022/09/17 09:34:41;;;;;;;5.53;2.57;;;14.20;99.90;;;;;;5001951;28;20443;-69
2022/09/17 09:37:19;;;;;;;11.13;2.80;;;14.30;99.90;;;;;;5001528;28;20412;-70
2022/09/17 09:39:47;;;;;;;10.50;3.57;;;14.40;99.90;;;;;;5002849;28;20280;-69
2022/09/17 09:42:27;;;;;;;5.50;2.43;;;14.50;99.90;;;;;;4990901;28;20873;-70
2022/09/17 09:44:55;;;;;;;3.93;2.23;;;14.50;99.90;;;;;;5002274;28;20534;-68
2022/09/17 09:48:06;;;;;;;6.53;2.40;;;14.60;99.90;;;;;;5003020;28;20481;-69
2022/09/17 09:50:47;;;;;;;6.17;2.60;;;14.60;99.90;;;;;;5002405;28;20481;-68
2022/09/17 09:53:52;;;;;;;6.07;2.90;;;14.70;99.90;;;;;;5000062;28;20526;-68
2022/09/17 09:56:46;;;;;;;5.50;2.33;;;14.90;99.90;;;;;;5000588;28;20419;-68
2022/09/17 09:59:12;;;;;;;5.50;2.40;;;15.00;99.90;;;;;;4992169;28;20520;-69
2022/09/17 10:01:41;;;;;;;7.27;3.00;;;15.00;99.90;;;;;;5001167;28;20901;-68
2022/09/17 10:04:25;;;;;;;4.80;2.50;;;15.00;99.90;;;;;;4999577;28;20225;-69
2022/09/17 10:06:58;;;;;;;6.43;2.70;;;15.10;99.90;;;;;;5000880;28;20427;-68
2022/09/17 10:09:24;;;;;;;6.30;2.77;;;15.30;99.90;;;;;;5003037;28;20486;-68
2022/09/17 10:12:15;;;;;;;6.23;2.80;;;15.40;99.90;;;;;;5000846;28;20436;-68
2022/09/17 10:14:43;;;;;;;4.57;2.97;;;15.50;99.90;;;;;;4990491;28;20423;-69
2022/09/17 10:17:35;;;;;;;5.40;2.40;;;15.40;99.90;;;;;;5003342;28;20427;-69
2022/09/17 10:20:10;;;;;;;3.90;2.80;;;15.40;99.90;;;;;;4995994;28;20456;-68
2022/09/17 10:22:38;;;;;;;4.40;2.17;;;15.50;99.90;;;;;;4999522;28;20455;-70
2022/09/17 10:25:16;;;;;;;3.33;2.30;;;15.40;99.90;;;;;;4996944;28;20428;-69
2022/09/17 10:27:44;;;;;;;6.33;2.90;;;15.40;99.90;;;;;;5001824;28;20431;-70
2022/09/17 10:30:16;;;;;;;3.10;2.20;;;15.40;99.90;;;;;;4999826;28;20428;-68
2022/09/17 10:32:42;;;;;;;3.83;2.50;;;15.30;99.90;;;;;;5001109;28;20913;-69
2022/09/17 10:35:13;;;;;;;5.97;3.03;;;15.10;99.90;;;;;;5001461;28;20458;-69
2022/09/17 10:37:50;;;;;;;3.70;2.07;;;15.20;99.90;;;;;;4996584;28;20477;-70
2022/09/17 10:40:19;;;;;;;7.03;3.00;;;15.30;99.90;;;;;;5000137;28;20918;-70
2022/09/17 10:42:49;;;;;;;8.00;2.77;;;15.60;99.90;;;;;;5000088;28;20443;-69
2022/09/17 10:45:29;;;;;;;4.43;2.00;;;15.80;99.90;;;;;;4998847;28;20464;-69
2022/09/17 10:47:56;;;;;;;8.57;2.70;;;15.80;99.90;;;;;;4998466;28;20423;-70
2022/09/17 10:50:31;;;;;;;7.13;2.83;;;15.90;99.90;;;;;;5003404;28;20419;-69
2022/09/17 10:53:00;;;;;;;7.60;2.90;;;15.90;99.90;;;;;;5002084;28;20475;-70
2022/09/17 10:55:29;;;;;;;5.20;3.03;;;15.90;99.90;;;;;;5001948;28;20463;-69
2022/09/17 10:58:08;;;;;;;3.53;2.40;;;15.90;99.90;;;;;;4999898;28;20478;-69
2022/09/17 11:01:01;;;;;;;4.77;2.43;;;16.00;99.90;;;;;;4999017;28;21422;-70
2022/09/17 11:03:44;;;;;;;6.30;2.27;;;16.20;99.90;;;;;;5000459;28;20579;-69
2022/09/17 11:06:38;;;;;;;4.47;2.80;;;16.20;99.90;;;;;;5000509;28;20432;-69
2022/09/17 11:09:16;;;;;;;4.80;2.43;;;16.20;99.90;;;;;;5000124;28;20469;-69
2022/09/17 11:12:04;;;;;;;7.67;2.40;;;16.20;99.90;;;;;;4999451;28;20943;-69
2022/09/17 11:14:57;;;;;;;4.73;3.03;;;16.30;99.90;;;;;;4996717;28;20825;-69
2022/09/17 11:17:40;;;;;;;3.10;2.30;;;16.10;99.90;;;;;;4997159;28;20460;-70
2022/09/17 11:20:23;;;;;;;5.00;2.50;;;16.00;99.90;;;;;;4998326;28;20814;-70
2022/09/17 11:23:04;;;;;;;6.73;2.20;;;16.00;99.90;;;;;;4997982;28;20506;-69
2022/09/17 11:25:36;;;;;;;7.60;2.43;;;15.90;99.90;;;;;;4997462;28;20409;-68
2022/09/17 11:28:24;;;;;;;5.13;2.10;;;15.90;99.90;;;;;;4999595;28;20997;-68
2022/09/17 11:31:08;;;;;;;6.10;2.10;;;15.90;99.90;;;;;;5001856;28;20451;-69
2022/09/17 11:34:07;;;;;;;4.93;2.03;;;15.90;99.90;;;;;;4999462;28;20471;-69
2022/09/17 11:36:46;;;;;;;6.13;2.70;;;15.90;99.90;;;;;;4997881;28;20436;-69
2022/09/17 11:39:29;;;;;;;10.50;4.50;;;15.90;99.90;;;;;;4998765;28;20412;-69
2022/09/17 11:41:59;;;;;;;6.90;3.20;;;15.90;99.90;;;;;;4999210;28;20719;-69
2022/09/17 11:44:37;;;;;;;5.20;2.53;;;16.10;99.90;;;;;;4999724;28;20821;-69
2022/09/17 11:47:17;;;;;;;7.10;3.73;;;16.20;99.90;;;;;;4998278;28;20428;-69
2022/09/17 11:50:24;;;;;;;4.60;2.40;;;16.20;99.90;;;;;;4999754;28;20780;-69
2022/09/17 11:53:28;;;;;;;4.30;2.33;;;16.30;99.90;;;;;;4988840;28;20914;-69
2022/09/17 11:56:02;;;;;;;4.50;1.90;;;16.20;99.90;;;;;;5001123;28;20416;-69
2022/09/17 11:58:37;;;;;;;3.40;1.60;;;16.00;99.90;;;;;;4998447;28;20470;-69
2022/09/17 12:01:12;;;;;;;4.77;1.90;;;15.70;99.90;;;;;;4997614;28;20416;-67
2022/09/17 12:03:54;;;;;;;2.53;2.20;;;15.10;99.90;;;;;;4994665;28;20475;-67
2022/09/17 12:06:34;;;;;;;4.20;1.90;;;14.80;99.90;;;;;;4996925;28;20474;-68
2022/09/17 12:09:19;;;;;;;3.50;1.90;;;14.20;99.90;;;;;;4987075;28;20559;-68
2022/09/17 12:12:01;;;;;;;8.07;2.40;;;13.90;99.90;;;;;;5000803;28;20442;-69
2022/09/17 12:14:48;;;;;;;5.00;2.00;;;13.70;99.90;;;;;;5000663;28;20415;-69
2022/09/17 12:17:23;;;;;;;4.03;2.37;;;13.70;99.90;;;;;;4998133;28;20821;-68
2022/09/17 12:20:23;;;;;;;3.87;1.90;;;13.70;99.90;;;;;;4998900;28;20452;-70
2022/09/17 12:22:50;;;;;;;4.83;2.20;;;13.50;99.90;;;;;;5000270;28;20455;-69
2022/09/17 12:25:16;;;;;;;2.97;2.03;;;13.40;99.90;;;;;;4999567;28;20490;-68
2022/09/17 12:27:44;;;;;;;3.40;1.80;;;13.50;99.90;;;;;;4984378;28;20452;-69
2022/09/17 12:30:14;;;;;;;6.80;2.20;;;13.50;99.90;;;;;;4999087;28;20208;-70
2022/09/17 12:33:05;;;;;;;2.43;1.93;;;13.50;99.90;;;;;;4996074;28;20527;-68
2022/09/17 12:36:14;;;;;;;4.87;2.10;;;13.60;99.90;;;;;;4998969;28;20432;-68
2022/09/17 12:39:08;;;;;;;4.73;2.60;;;13.80;99.90;;;;;;4998661;28;20437;-69
2022/09/17 12:42:23;;;;;;;3.87;2.37;;;14.00;99.90;;;;;;4998711;28;20424;-68
2022/09/17 12:45:32;;;;;;;4.20;2.30;;;14.30;99.90;;;;;;4995503;28;20911;-68
2022/09/17 12:48:13;;;;;;;5.10;2.20;;;14.50;99.90;;;;;;4997728;28;20413;-69
2022/09/17 12:51:03;;;;;;;5.83;2.20;;;14.60;99.90;;;;;;4998992;28;20481;-69
2022/09/17 12:53:46;;;;;;;4.67;2.40;;;14.80;99.90;;;;;;4998578;28;20491;-67
2022/09/17 12:56:18;;;;;;;6.80;2.50;;;14.80;99.90;;;;;;4999098;28;20490;-68
2022/09/17 12:59:11;;;;;;;4.00;2.23;;;14.90;99.90;;;;;;5000327;28;20436;-68
2022/09/17 13:02:14;;;;;;;8.33;3.50;;;15.20;99.90;;;;;;4985262;28;20435;-69
2022/09/17 13:05:19;;;;;;;3.27;1.87;;;15.70;99.90;;;;;;4945225;28;20801;-68
2022/09/17 13:07:51;;;;;;;5.20;2.17;;;16.30;99.90;;;;;;4997045;28;20439;-67
2022/09/17 13:10:54;;;;;;;7.90;3.00;;;16.40;99.90;;;;;;4997500;28;20438;-70
2022/09/17 13:13:35;;;;;;;4.70;2.10;;;17.20;99.90;;;;;;4999361;28;21082;-69
2022/09/17 13:16:33;;;;;;;5.00;1.90;;;17.70;99.90;;;;;;4999925;28;20470;-68
2022/09/17 13:19:30;;;;;;;3.17;1.90;;;17.80;99.90;;;;;;4963649;28;20419;-69